createdAt,value
2023-03-17T00:01:57.438Z,2.00
2023-03-17T00:04:27.770Z,2.47
2023-03-17T00:06:58.015Z,2.70
2023-03-17T00:09:26.658Z,2.50
2023-03-17T00:11:54.825Z,2.40
2023-03-17T00:14:23.108Z,1.77
2023-03-17T00:16:53.838Z,2.40
2023-03-17T00:19:27.608Z,2.40
2023-03-17T00:21:58.503Z,2.20
2023-03-17T00:24:26.813Z,2.90
2023-03-17T00:26:55.152Z,2.23
2023-03-17T00:29:23.352Z,3.17
2023-03-17T00:31:51.734Z,2.23
2023-03-17T00:34:20.479Z,2.57
2023-03-17T00:36:51.258Z,2.93
2023-03-17T00:39:20.909Z,2.60
2023-03-17T00:41:49.954Z,2.53
2023-03-17T00:44:18.862Z,2.67
2023-03-17T00:46:47.390Z,2.30
2023-03-17T00:49:21.211Z,3.03
2023-03-17T00:51:50.903Z,2.87
2023-03-17T00:54:21.929Z,3.10
2023-03-17T00:56:52.079Z,2.00
2023-03-17T00:59:25.404Z,2.33
2023-03-17T01:01:54.736Z,2.83
2023-03-17T01:04:24.053Z,3.63
2023-03-17T01:06:53.286Z,2.47
2023-03-17T01:09:27.155Z,2.77
2023-03-17T01:11:56.680Z,3.17
2023-03-17T01:14:25.903Z,2.87
2023-03-17T01:16:55.189Z,3.07
2023-03-17T01:19:23.976Z,3.07
2023-03-17T01:21:52.391Z,3.50
2023-03-17T01:24:22.192Z,2.97
2023-03-17T01:26:51.259Z,2.60
2023-03-17T01:29:19.452Z,3.00
2023-03-17T01:31:47.775Z,2.60
2023-03-17T01:34:16.811Z,2.50
2023-03-17T01:36:45.087Z,2.67
2023-03-17T01:39:13.248Z,2.80
2023-03-17T01:41:43.454Z,2.83
2023-03-17T01:44:16.901Z,2.77
2023-03-17T01:46:47.575Z,3.27
2023-03-17T01:49:23.725Z,3.17
2023-03-17T01:52:03.640Z,3.90
2023-03-17T01:54:38.636Z,3.03
2023-03-17T01:57:14.600Z,3.20
2023-03-17T01:59:46.636Z,3.30
2023-03-17T02:02:20.050Z,2.97
2023-03-17T02:04:50.576Z,2.93
2023-03-17T02:07:20.759Z,3.30
2023-03-17T02:09:49.097Z,3.23
2023-03-17T02:12:18.684Z,2.80
2023-03-17T02:14:47.026Z,3.47
2023-03-17T02:17:15.196Z,2.73
2023-03-17T02:19:43.446Z,3.57
2023-03-17T02:22:13.674Z,3.67
2023-03-17T02:24:46.102Z,2.90
2023-03-17T02:27:17.888Z,2.57
2023-03-17T02:29:47.395Z,2.37
2023-03-17T02:32:17.754Z,3.17
2023-03-17T02:34:47.194Z,2.67
2023-03-17T02:37:17.482Z,2.57
2023-03-17T02:39:45.889Z,2.60
2023-03-17T02:42:15.538Z,2.93
2023-03-17T02:44:43.925Z,2.40
2023-03-17T02:47:12.207Z,2.80
2023-03-17T02:49:41.986Z,2.47
2023-03-17T02:52:10.952Z,2.20
2023-03-17T02:54:40.767Z,2.43
2023-03-17T02:57:09.859Z,2.17
2023-03-17T02:59:38.812Z,1.60
2023-03-17T03:02:07.084Z,2.73
2023-03-17T03:04:36.427Z,2.20
2023-03-17T03:07:05.245Z,2.63
2023-03-17T03:09:33.426Z,2.67
2023-03-17T03:12:03.256Z,2.40
2023-03-17T03:14:32.512Z,1.97
2023-03-17T03:17:00.714Z,2.47
2023-03-17T03:19:29.016Z,1.93
2023-03-17T03:21:57.409Z,1.73
2023-03-17T03:24:25.637Z,2.43
2023-03-17T03:26:53.912Z,2.93
2023-03-17T03:29:23.607Z,2.50
2023-03-17T03:31:51.779Z,2.07
2023-03-17T03:34:20.126Z,2.73
2023-03-17T03:36:48.592Z,1.90
2023-03-17T03:39:16.739Z,2.17
2023-03-17T03:41:44.973Z,2.13
2023-03-17T03:44:13.247Z,1.63
2023-03-17T03:46:42.798Z,2.57
2023-03-17T03:49:11.443Z,2.13
2023-03-17T03:51:39.672Z,1.70
2023-03-17T03:54:07.858Z,2.07
2023-03-17T03:56:36.267Z,2.23
2023-03-17T03:59:04.750Z,2.60
2023-03-17T04:01:33.040Z,2.50
2023-03-17T04:04:02.989Z,2.17
2023-03-17T04:06:31.200Z,2.50
2023-03-17T04:08:59.409Z,2.37
2023-03-17T04:11:27.798Z,2.33
2023-03-17T04:13:55.937Z,2.10
2023-03-17T04:16:24.447Z,2.30
2023-03-17T04:18:52.796Z,2.30
2023-03-17T04:21:22.605Z,2.53
2023-03-17T04:23:50.781Z,2.43
2023-03-17T04:26:19.180Z,2.40
2023-03-17T04:28:47.740Z,2.13
2023-03-17T04:31:16.293Z,1.53
2023-03-17T04:33:44.937Z,2.37
2023-03-17T04:36:19.354Z,1.60
2023-03-17T04:38:49.609Z,2.40
2023-03-17T04:41:18.046Z,1.93
2023-03-17T04:43:46.295Z,1.67
2023-03-17T04:46:15.529Z,2.00
2023-03-17T04:48:44.184Z,1.33
2023-03-17T04:51:12.382Z,1.73
2023-03-17T04:53:40.925Z,1.90
2023-03-17T04:56:10.625Z,1.50
2023-03-17T04:58:38.988Z,1.70
2023-03-17T05:01:08.514Z,1.70
2023-03-17T05:03:36.982Z,1.70
2023-03-17T05:06:06.131Z,1.50
2023-03-17T05:08:34.865Z,1.90
2023-03-17T05:11:03.178Z,1.40
2023-03-17T05:13:32.833Z,1.97
2023-03-17T05:16:01.651Z,1.50
2023-03-17T05:18:30.010Z,1.80
2023-03-17T05:20:58.216Z,1.97
2023-03-17T05:23:26.568Z,1.50
2023-03-17T05:25:54.881Z,1.50
2023-03-17T05:28:23.670Z,1.60
2023-03-17T05:30:53.504Z,1.73
2023-03-17T05:33:21.939Z,1.87
2023-03-17T05:35:50.211Z,2.37
2023-03-17T05:38:19.308Z,1.47
2023-03-17T05:40:50.863Z,1.27
2023-03-17T05:43:19.375Z,1.23
2023-03-17T05:45:47.986Z,1.67
2023-03-17T05:48:17.738Z,1.80
2023-03-17T05:50:46.007Z,1.57
2023-03-17T05:53:14.347Z,1.00
2023-03-17T05:55:42.774Z,1.43
2023-03-17T05:58:10.975Z,1.27
2023-03-17T06:00:39.387Z,1.77
2023-03-17T06:03:07.831Z,1.30
2023-03-17T06:05:37.590Z,1.93
2023-03-17T06:08:06.493Z,1.83
2023-03-17T06:10:34.909Z,1.70
2023-03-17T06:13:04.538Z,1.53
2023-03-17T06:15:34.415Z,0.90
2023-03-17T06:18:05.201Z,1.57
2023-03-17T06:20:33.801Z,1.50
2023-03-17T06:23:05.898Z,1.00
2023-03-17T06:25:35.219Z,1.30
2023-03-17T06:28:04.239Z,1.40
2023-03-17T06:30:34.062Z,1.43
2023-03-17T06:33:02.996Z,1.00
2023-03-17T06:35:32.173Z,1.07
2023-03-17T06:38:02.766Z,1.40
2023-03-17T06:40:32.116Z,1.07
2023-03-17T06:43:01.233Z,1.00
2023-03-17T06:45:30.190Z,1.33
2023-03-17T06:47:58.794Z,1.17
2023-03-17T06:50:27.572Z,1.30
2023-03-17T06:52:56.104Z,1.30
2023-03-17T06:55:25.819Z,1.23
2023-03-17T06:57:54.486Z,1.60
2023-03-17T07:00:23.467Z,1.23
2023-03-17T07:02:51.640Z,1.40
2023-03-17T07:05:20.292Z,2.00
2023-03-17T07:07:49.456Z,1.20
2023-03-17T07:10:18.131Z,1.10
2023-03-17T07:12:47.906Z,1.17
2023-03-17T07:15:17.440Z,1.30
2023-03-17T07:17:46.845Z,0.80
2023-03-17T07:20:15.297Z,1.10
2023-03-17T07:22:44.012Z,1.50
2023-03-17T07:25:12.733Z,1.20
2023-03-17T07:27:41.031Z,1.77
2023-03-17T07:30:13.017Z,0.73
2023-03-17T07:32:41.830Z,0.83
2023-03-17T07:35:10.760Z,1.37
2023-03-17T07:37:39.321Z,0.60
2023-03-17T07:40:09.450Z,0.90
2023-03-17T07:42:38.747Z,1.10
2023-03-17T07:45:08.663Z,1.40
2023-03-17T07:47:39.566Z,1.20
2023-03-17T07:50:08.521Z,1.30
2023-03-17T07:52:36.931Z,1.40
2023-03-17T07:55:08.446Z,1.03
2023-03-17T07:57:36.586Z,1.40
2023-03-17T08:00:09.359Z,1.50
2023-03-17T08:02:39.923Z,1.33
2023-03-17T08:05:09.140Z,1.03
2023-03-17T08:07:38.693Z,1.00
2023-03-17T08:10:08.263Z,0.97
2023-03-17T08:12:37.150Z,1.50
2023-03-17T08:15:06.768Z,1.50
2023-03-17T08:17:37.382Z,1.17
2023-03-17T08:20:08.470Z,1.10
2023-03-17T08:22:36.881Z,1.13
2023-03-17T08:25:05.356Z,0.87
2023-03-17T08:27:34.219Z,1.00
2023-03-17T08:30:02.905Z,0.97
2023-03-17T08:32:31.260Z,1.60
2023-03-17T08:35:00.529Z,0.63
2023-03-17T08:37:30.634Z,1.07
2023-03-17T08:39:59.069Z,1.27
2023-03-17T08:42:27.620Z,1.37
2023-03-17T08:44:56.314Z,1.00
2023-03-17T08:47:24.953Z,1.23
2023-03-17T08:49:53.525Z,0.90
2023-03-17T08:52:21.647Z,1.00
2023-03-17T08:54:51.644Z,1.20
2023-03-17T08:57:20.331Z,1.30
2023-03-17T08:59:49.256Z,1.10
2023-03-17T09:02:17.451Z,1.03
2023-03-17T09:04:45.914Z,0.83
2023-03-17T09:07:15.164Z,1.13
2023-03-17T09:09:43.554Z,1.23
2023-03-17T09:12:17.152Z,1.37
2023-03-17T09:14:46.897Z,1.10
2023-03-17T09:17:16.729Z,1.20
2023-03-17T09:19:44.914Z,1.00
2023-03-17T09:22:15.285Z,0.90
2023-03-17T09:24:44.150Z,0.97
2023-03-17T09:27:14.319Z,0.80
2023-03-17T09:29:43.219Z,1.27
2023-03-17T09:32:11.811Z,0.90
2023-03-17T09:34:40.090Z,1.00
2023-03-17T09:37:09.787Z,1.03
2023-03-17T09:39:38.256Z,0.70
2023-03-17T09:42:21.804Z,0.70
2023-03-17T09:45:07.613Z,1.23
2023-03-17T09:48:04.832Z,0.60
2023-03-17T09:50:39.170Z,1.40
2023-03-17T09:53:18.071Z,1.10
2023-03-17T09:55:49.056Z,0.63
2023-03-17T09:58:25.014Z,0.80
2023-03-17T10:00:53.673Z,0.87
2023-03-17T10:03:22.260Z,0.70
2023-03-17T10:05:50.575Z,1.30
2023-03-17T10:08:31.353Z,0.60
2023-03-17T10:11:04.674Z,2.03
2023-03-17T10:13:47.060Z,0.87
2023-03-17T10:16:19.539Z,1.00
2023-03-17T10:18:53.099Z,0.93
2023-03-17T10:21:26.809Z,0.80
2023-03-17T10:23:57.471Z,1.13
2023-03-17T10:26:33.171Z,0.70
2023-03-17T10:29:04.925Z,0.67
2023-03-17T10:31:35.642Z,1.03
2023-03-17T10:34:15.893Z,0.70
2023-03-17T10:36:47.956Z,0.73
2023-03-17T10:39:19.758Z,1.37
2023-03-17T10:41:57.634Z,1.07
2023-03-17T10:44:44.134Z,0.83
2023-03-17T10:47:30.817Z,0.87
2023-03-17T10:50:02.904Z,0.97
2023-03-17T10:52:34.109Z,0.70
2023-03-17T10:55:07.953Z,0.90
2023-03-17T10:57:39.238Z,1.30
2023-03-17T11:00:18.064Z,1.83
2023-03-17T11:02:52.119Z,1.00
2023-03-17T11:05:23.031Z,0.53
2023-03-17T11:07:51.635Z,0.87
2023-03-17T11:10:24.090Z,0.30
2023-03-17T11:13:00.617Z,0.70
2023-03-17T11:15:36.727Z,1.00
2023-03-17T11:18:08.231Z,0.90
2023-03-17T11:20:47.862Z,0.70
2023-03-17T11:23:27.430Z,1.00
2023-03-17T11:26:10.890Z,1.03
2023-03-17T11:28:42.145Z,0.60
2023-03-17T11:31:17.788Z,0.67
2023-03-17T11:33:53.288Z,0.90
2023-03-17T11:36:36.778Z,0.60
2023-03-17T11:39:12.685Z,0.87
2023-03-17T11:41:57.531Z,0.93
2023-03-17T11:44:52.365Z,0.90
2023-03-17T11:47:34.454Z,1.17
2023-03-17T11:50:08.824Z,1.10
2023-03-17T11:52:46.181Z,0.80
2023-03-17T11:55:22.447Z,0.93
2023-03-17T11:57:57.791Z,1.00
2023-03-17T12:00:31.017Z,1.00
2023-03-17T12:03:09.706Z,0.90
2023-03-17T12:05:38.384Z,1.07
2023-03-17T12:08:13.573Z,1.10
2023-03-17T12:10:45.787Z,0.80
2023-03-17T12:13:19.168Z,1.00
2023-03-17T12:15:53.138Z,1.00
2023-03-17T12:18:31.364Z,1.00
2023-03-17T12:21:01.855Z,1.13
2023-03-17T12:23:38.694Z,1.07
2023-03-17T12:26:12.959Z,0.83
2023-03-17T12:28:48.413Z,1.10
2023-03-17T12:31:21.798Z,0.90
2023-03-17T12:33:58.286Z,1.40
2023-03-17T12:36:28.104Z,1.13
2023-03-17T12:39:02.506Z,0.67
2023-03-17T12:41:59.703Z,0.97
2023-03-17T12:44:41.951Z,1.00
2023-03-17T12:47:26.555Z,1.70
2023-03-17T12:50:09.777Z,1.00
2023-03-17T12:52:53.855Z,1.20
2023-03-17T12:55:27.089Z,1.13
2023-03-17T12:58:02.168Z,1.23
2023-03-17T13:00:32.076Z,1.63
2023-03-17T13:03:18.487Z,1.70
2023-03-17T13:05:52.232Z,1.83
2023-03-17T13:08:28.241Z,1.20
2023-03-17T13:11:19.529Z,1.00
2023-03-17T13:13:59.310Z,0.80
2023-03-17T13:16:33.716Z,1.00
2023-03-17T13:19:20.895Z,1.43
2023-03-17T13:22:18.984Z,1.10
2023-03-17T13:24:50.242Z,1.10
2023-03-17T13:27:44.657Z,0.77
2023-03-17T13:30:43.953Z,1.40
2023-03-17T13:33:24.202Z,1.30
2023-03-17T13:36:22.769Z,1.27
2023-03-17T13:39:34.769Z,0.90
2023-03-17T13:42:29.567Z,1.27
2023-03-17T13:45:18.052Z,1.10
2023-03-17T13:47:47.200Z,0.80
2023-03-17T13:50:18.721Z,1.00
2023-03-17T13:52:50.420Z,0.80
2023-03-17T13:55:38.535Z,1.13
2023-03-17T13:58:34.271Z,1.43
2023-03-17T14:01:07.380Z,0.83
2023-03-17T14:03:41.882Z,1.20
2023-03-17T14:06:13.876Z,2.17
2023-03-17T14:08:47.769Z,1.60
2023-03-17T14:11:28.113Z,0.80
2023-03-17T14:14:29.644Z,1.60
2023-03-17T14:17:06.271Z,0.87
2023-03-17T14:19:34.840Z,1.13
2023-03-17T14:22:21.564Z,1.20
2023-03-17T14:24:54.195Z,1.70
2023-03-17T14:27:25.997Z,1.20
2023-03-17T14:29:54.168Z,1.43
2023-03-17T14:32:24.859Z,1.50
2023-03-17T14:34:57.314Z,1.37
2023-03-17T14:37:26.550Z,1.20
2023-03-17T14:39:57.583Z,1.70
2023-03-17T14:42:30.762Z,1.43
2023-03-17T14:45:04.345Z,1.50
2023-03-17T14:47:37.995Z,1.37
2023-03-17T14:50:14.944Z,1.50
2023-03-17T14:52:43.620Z,1.13
2023-03-17T14:55:15.932Z,0.90
2023-03-17T14:57:51.256Z,1.63
2023-03-17T15:00:34.247Z,1.20
2023-03-17T15:03:05.343Z,1.50
2023-03-17T15:05:39.857Z,2.43
2023-03-17T15:08:31.596Z,1.40
2023-03-17T15:11:00.321Z,1.20
2023-03-17T15:13:33.935Z,1.40
2023-03-17T15:16:07.503Z,1.53
2023-03-17T15:18:36.248Z,1.27
2023-03-17T15:21:04.625Z,2.40
2023-03-17T15:23:41.805Z,1.13
2023-03-17T15:26:23.826Z,1.60
2023-03-17T15:28:53.879Z,1.47
2023-03-17T15:31:27.461Z,1.93
2023-03-17T15:33:57.975Z,1.57
2023-03-17T15:36:32.755Z,2.10
2023-03-17T15:39:01.483Z,1.50
2023-03-17T15:41:30.245Z,1.10
2023-03-17T15:43:59.791Z,1.13
2023-03-17T15:46:31.326Z,1.60
2023-03-17T15:49:00.198Z,1.20
2023-03-17T15:51:28.627Z,1.50
2023-03-17T15:53:57.122Z,1.87
2023-03-17T15:56:26.035Z,2.00
2023-03-17T15:58:54.165Z,1.60
2023-03-17T16:01:27.310Z,1.27
2023-03-17T16:03:56.730Z,1.00
2023-03-17T16:06:26.331Z,1.87
2023-03-17T16:08:54.633Z,0.97
2023-03-17T16:11:28.591Z,1.50
2023-03-17T16:13:57.582Z,1.20
2023-03-17T16:16:31.796Z,1.00
2023-03-17T16:19:00.248Z,1.30
2023-03-17T16:21:30.706Z,1.50
2023-03-17T16:23:59.335Z,1.83
2023-03-17T16:26:28.024Z,1.63
2023-03-17T16:28:57.307Z,1.07
2023-03-17T16:31:29.550Z,1.80
2023-03-17T16:33:58.212Z,1.80
2023-03-17T16:36:27.266Z,2.07
2023-03-17T16:38:55.643Z,1.70
2023-03-17T16:41:27.459Z,1.73
2023-03-17T16:44:01.166Z,2.00
2023-03-17T16:46:35.637Z,2.47
2023-03-17T16:49:05.320Z,1.73
2023-03-17T16:51:34.015Z,2.13
2023-03-17T16:54:02.236Z,2.00
2023-03-17T16:56:32.007Z,2.43
2023-03-17T16:59:00.659Z,3.93
2023-03-17T17:01:31.419Z,2.40
2023-03-17T17:03:59.737Z,2.80
2023-03-17T17:06:28.040Z,3.10
2023-03-17T17:08:56.201Z,3.40
2023-03-17T17:11:25.034Z,2.87
2023-03-17T17:13:53.444Z,2.83
2023-03-17T17:16:26.667Z,2.67
2023-03-17T17:18:57.736Z,2.63
2023-03-17T17:21:27.111Z,2.47
2023-03-17T17:23:56.560Z,3.07
2023-03-17T17:26:24.905Z,3.03
2023-03-17T17:28:53.360Z,3.47
2023-03-17T17:31:22.415Z,2.73
2023-03-17T17:33:50.710Z,3.83
2023-03-17T17:36:20.362Z,3.63
2023-03-17T17:38:49.241Z,3.93
2023-03-17T17:41:21.382Z,3.40
2023-03-17T17:43:50.014Z,4.23
2023-03-17T17:46:20.651Z,3.07
2023-03-17T17:48:50.141Z,3.83
2023-03-17T17:51:20.154Z,3.07
2023-03-17T17:53:48.773Z,4.23
2023-03-17T17:56:18.458Z,4.57
2023-03-17T17:58:47.647Z,3.17
2023-03-17T18:01:19.925Z,4.00
2023-03-17T18:03:48.974Z,3.70
2023-03-17T18:06:17.962Z,3.20
2023-03-17T18:08:48.124Z,3.87
2023-03-17T18:11:16.745Z,5.13
2023-03-17T18:13:44.935Z,2.77
2023-03-17T18:16:17.262Z,4.37
2023-03-17T18:18:47.234Z,3.33
2023-03-17T18:21:16.009Z,3.40
2023-03-17T18:23:47.594Z,3.33
2023-03-17T18:26:19.748Z,3.97
2023-03-17T18:28:49.173Z,3.03
2023-03-17T18:31:23.435Z,4.43
2023-03-17T18:33:57.217Z,3.53
2023-03-17T18:36:27.460Z,4.77
2023-03-17T18:38:56.003Z,4.57
2023-03-17T18:41:27.075Z,4.73
2023-03-17T18:43:55.448Z,5.67
2023-03-17T18:46:23.691Z,4.17
2023-03-17T18:48:52.645Z,5.30
2023-03-17T18:51:20.767Z,4.83
2023-03-17T18:53:49.051Z,3.97
2023-03-17T18:56:17.424Z,5.87
2023-03-17T18:58:47.789Z,5.63
2023-03-17T19:01:16.326Z,4.13
2023-03-17T19:03:45.292Z,6.47
2023-03-17T19:06:15.271Z,6.93
2023-03-17T19:08:43.479Z,3.77
2023-03-17T19:11:13.691Z,6.17
2023-03-17T19:13:42.961Z,4.20
2023-03-17T19:16:13.066Z,5.17
2023-03-17T19:18:42.396Z,6.27
2023-03-17T19:21:11.921Z,5.37
2023-03-17T19:23:41.712Z,4.90
2023-03-17T19:26:10.760Z,6.60
2023-03-17T19:28:39.015Z,3.87
2023-03-17T19:31:07.944Z,5.70
2023-03-17T19:33:38.029Z,4.43
2023-03-17T19:36:09.523Z,4.53
2023-03-17T19:38:37.883Z,7.80
2023-03-17T19:41:07.171Z,7.57
2023-03-17T19:43:40.843Z,5.40
2023-03-17T19:46:10.604Z,8.17
2023-03-17T19:48:40.788Z,4.37
2023-03-17T19:51:09.422Z,7.30
2023-03-17T19:53:38.492Z,5.63
2023-03-17T19:56:07.476Z,7.53
2023-03-17T19:58:35.963Z,6.17
2023-03-17T20:01:05.730Z,7.00
2023-03-17T20:03:35.242Z,5.37
2023-03-17T20:06:06.842Z,8.20
2023-03-17T20:08:35.862Z,6.97
2023-03-17T20:11:05.590Z,6.53
2023-03-17T20:13:34.717Z,8.43
2023-03-17T20:16:03.663Z,7.50
2023-03-17T20:18:32.538Z,6.97
2023-03-17T20:21:01.724Z,4.87
2023-03-17T20:23:32.099Z,6.40
2023-03-17T20:26:01.347Z,8.60
2023-03-17T20:28:30.229Z,5.40
2023-03-17T20:31:01.254Z,5.80
2023-03-17T20:33:29.656Z,7.27
2023-03-17T20:35:58.218Z,6.93
2023-03-17T20:38:27.231Z,6.20
2023-03-17T20:41:07.815Z,8.53
2023-03-17T20:43:37.509Z,8.23
2023-03-17T20:46:08.717Z,6.17
2023-03-17T20:48:38.245Z,6.37
2023-03-17T20:51:07.114Z,8.47
2023-03-17T20:53:36.635Z,8.83
2023-03-17T20:56:08.562Z,7.13
2023-03-17T20:58:36.771Z,8.57
2023-03-17T21:01:05.345Z,7.17
2023-03-17T21:03:34.088Z,5.83
2023-03-17T21:06:02.250Z,7.43
2023-03-17T21:08:30.403Z,5.80
2023-03-17T21:10:59.214Z,6.53
2023-03-17T21:13:28.873Z,7.80
2023-03-17T21:15:57.505Z,7.67
2023-03-17T21:18:29.835Z,5.57
2023-03-17T21:20:58.481Z,8.73
2023-03-17T21:23:27.132Z,7.00
2023-03-17T21:25:56.456Z,8.33
2023-03-17T21:28:25.721Z,7.83
2023-03-17T21:30:55.358Z,7.67
2023-03-17T21:33:23.665Z,7.57
2023-03-17T21:35:52.385Z,5.37
2023-03-17T21:38:20.679Z,6.33
2023-03-17T21:40:48.805Z,7.13
2023-03-17T21:43:17.324Z,6.80
2023-03-17T21:45:46.071Z,5.60
2023-03-17T21:48:15.738Z,6.20
2023-03-17T21:50:44.175Z,6.87
2023-03-17T21:53:15.891Z,5.73
2023-03-17T21:55:44.218Z,4.80
2023-03-17T21:58:12.955Z,5.40
2023-03-17T22:00:45.594Z,5.80
2023-03-17T22:03:15.711Z,7.17
2023-03-17T22:05:47.184Z,6.93
2023-03-17T22:08:15.482Z,7.60
2023-03-17T22:10:43.746Z,5.63
2023-03-17T22:13:12.569Z,6.63
2023-03-17T22:15:41.079Z,7.90
2023-03-17T22:18:09.732Z,7.10
2023-03-17T22:20:39.325Z,6.83
2023-03-17T22:23:07.836Z,7.07
2023-03-17T22:25:36.100Z,5.73
2023-03-17T22:28:04.546Z,9.23
2023-03-17T22:30:33.021Z,8.33
2023-03-17T22:33:01.955Z,6.80
2023-03-17T22:35:30.345Z,6.23
2023-03-17T22:38:00.260Z,6.53
2023-03-17T22:40:28.401Z,7.17
2023-03-17T22:42:57.317Z,5.83
2023-03-17T22:45:26.066Z,7.73
2023-03-17T22:47:55.500Z,8.83
2023-03-17T22:50:24.472Z,8.00
2023-03-17T22:52:53.205Z,7.70
2023-03-17T22:55:23.261Z,5.80
2023-03-17T22:57:51.624Z,7.23
2023-03-17T23:00:20.208Z,7.27
2023-03-17T23:02:48.806Z,6.33
2023-03-17T23:05:17.016Z,7.47
2023-03-17T23:07:52.073Z,8.40
2023-03-17T23:10:25.036Z,9.67
2023-03-17T23:12:54.187Z,9.57
2023-03-17T23:15:22.936Z,8.07
2023-03-17T23:17:52.101Z,7.50
2023-03-17T23:20:20.855Z,8.83
2023-03-17T23:22:49.191Z,9.13
2023-03-17T23:25:18.452Z,7.57
2023-03-17T23:27:49.219Z,6.27
2023-03-17T23:30:18.844Z,5.80
2023-03-17T23:32:48.406Z,5.00
2023-03-17T23:35:17.486Z,6.23
2023-03-17T23:37:45.876Z,6.77
2023-03-17T23:40:15.869Z,9.47
2023-03-17T23:42:44.896Z,7.77
2023-03-17T23:45:15.290Z,6.90
2023-03-17T23:47:43.957Z,7.57
2023-03-17T23:50:14.400Z,5.73
2023-03-17T23:52:43.257Z,6.40
2023-03-17T23:55:12.977Z,8.27
2023-03-17T23:57:41.561Z,8.67
